createdAt,value
2018-09-13T00:00:57.035Z,78.88
2018-09-13T00:04:21.469Z,78.50
2018-09-13T00:07:45.863Z,78.89
2018-09-13T00:11:10.257Z,78.76
2018-09-13T00:14:34.627Z,79.77
2018-09-13T00:17:59.012Z,79.90
2018-09-13T00:21:23.459Z,80.10
2018-09-13T00:24:47.890Z,79.82
2018-09-13T00:28:12.327Z,80.31
2018-09-13T00:31:36.792Z,80.59
2018-09-13T00:35:01.206Z,81.28
2018-09-13T00:38:25.589Z,81.22
2018-09-13T00:41:49.971Z,81.61
2018-09-13T00:45:14.367Z,81.25
2018-09-13T00:48:38.834Z,81.13
2018-09-13T00:52:03.232Z,81.64
2018-09-13T00:55:27.708Z,81.43
2018-09-13T00:58:52.161Z,82.63
2018-09-13T01:02:16.539Z,81.75
2018-09-13T01:05:40.984Z,81.71
2018-09-13T01:09:08.496Z,81.74
2018-09-13T01:12:32.873Z,82.34
2018-09-13T01:15:57.337Z,82.12
2018-09-13T01:19:21.785Z,82.25
2018-09-13T01:22:46.244Z,82.17
2018-09-13T01:26:10.654Z,81.82
2018-09-13T01:29:35.084Z,81.97
2018-09-13T01:32:59.474Z,81.32
2018-09-13T01:36:23.899Z,82.31
2018-09-13T01:39:48.631Z,82.27
2018-09-13T01:43:13.060Z,82.39
2018-09-13T01:46:37.480Z,82.14
2018-09-13T01:50:01.882Z,81.90
2018-09-13T01:53:26.310Z,82.81
2018-09-13T01:56:50.733Z,82.13
2018-09-13T02:00:15.108Z,82.90
2018-09-13T02:03:39.520Z,82.59
2018-09-13T02:07:03.920Z,81.93
2018-09-13T02:10:28.353Z,81.71
2018-09-13T02:13:52.757Z,82.38
2018-09-13T02:17:17.145Z,82.53
2018-09-13T02:20:41.575Z,83.13
2018-09-13T02:24:06.078Z,83.01
2018-09-13T02:27:30.505Z,82.02
2018-09-13T02:30:54.915Z,82.72
2018-09-13T02:34:19.293Z,83.02
2018-09-13T02:37:43.723Z,82.40
2018-09-13T02:41:08.179Z,82.60
2018-09-13T02:44:32.637Z,82.22
2018-09-13T02:47:57.182Z,81.91
2018-09-13T02:51:21.563Z,82.42
2018-09-13T02:54:46.543Z,82.73
2018-09-13T02:58:10.927Z,82.52
2018-09-13T03:01:35.307Z,81.75
2018-09-13T03:04:59.766Z,82.20
2018-09-13T03:08:24.270Z,82.15
2018-09-13T03:11:48.592Z,83.01
2018-09-13T03:15:13.050Z,82.40
2018-09-13T03:18:37.507Z,81.94
2018-09-13T03:22:01.949Z,82.36
2018-09-13T03:25:26.321Z,81.93
2018-09-13T03:28:51.143Z,82.16
2018-09-13T03:32:15.555Z,82.76
2018-09-13T03:35:39.975Z,81.76
2018-09-13T03:39:06.532Z,81.73
2018-09-13T03:42:30.932Z,81.81
2018-09-13T03:45:55.356Z,82.26
2018-09-13T03:49:19.742Z,81.95
2018-09-13T03:52:44.136Z,81.05
2018-09-13T03:56:14.845Z,82.32
2018-09-13T03:59:39.285Z,81.99
2018-09-13T04:03:03.686Z,81.80
2018-09-13T04:06:28.156Z,81.85
2018-09-13T04:09:52.617Z,81.07
2018-09-13T04:13:17.021Z,81.53
2018-09-13T04:16:41.509Z,81.55
2018-09-13T04:20:05.966Z,81.46
2018-09-13T04:23:30.426Z,80.70
2018-09-13T04:26:54.819Z,80.45
2018-09-13T04:30:19.244Z,80.58
2018-09-13T04:33:43.609Z,80.13
2018-09-13T04:37:08.747Z,80.06
2018-09-13T04:40:33.152Z,80.27
2018-09-13T04:43:57.608Z,79.33
2018-09-13T04:47:21.984Z,78.95
2018-09-13T04:50:46.598Z,79.02
2018-09-13T04:54:11.050Z,78.48
2018-09-13T04:57:35.616Z,78.91
2018-09-13T05:01:00.081Z,79.63
2018-09-13T05:04:25.548Z,79.01
2018-09-13T05:07:50.069Z,78.45
2018-09-13T05:11:14.482Z,79.49
2018-09-13T05:14:38.926Z,79.17
2018-09-13T05:18:03.468Z,79.88
2018-09-13T05:21:27.904Z,79.46
2018-09-13T05:24:52.328Z,79.19
2018-09-13T05:28:16.762Z,79.29
2018-09-13T05:31:41.235Z,77.61
2018-09-13T05:35:05.700Z,75.54
2018-09-13T05:38:30.195Z,76.94
2018-09-13T05:41:54.593Z,78.27
2018-09-13T05:45:19.002Z,79.66
2018-09-13T05:48:43.427Z,78.76
2018-09-13T05:52:07.989Z,80.25
2018-09-13T05:55:32.401Z,79.30
2018-09-13T05:58:57.470Z,79.66
2018-09-13T06:02:21.978Z,79.41
2018-09-13T06:05:46.457Z,79.78
2018-09-13T06:09:10.954Z,80.03
2018-09-13T06:12:35.380Z,79.51
2018-09-13T06:16:00.633Z,79.36
2018-09-13T06:19:28.805Z,79.57
2018-09-13T06:23:01.132Z,79.62
2018-09-13T06:26:25.623Z,78.55
2018-09-13T06:29:50.120Z,79.03
2018-09-13T06:33:14.617Z,78.99
2018-09-13T06:36:39.106Z,79.17
2018-09-13T06:40:03.508Z,78.48
2018-09-13T06:43:27.908Z,77.94
2018-09-13T06:46:52.344Z,78.03
2018-09-13T06:50:16.759Z,77.58
2018-09-13T06:53:41.211Z,77.41
2018-09-13T06:57:05.697Z,77.98
2018-09-13T07:00:30.176Z,78.07
2018-09-13T07:03:54.591Z,78.07
2018-09-13T07:07:19.157Z,78.60
2018-09-13T07:10:43.685Z,76.98
2018-09-13T07:14:08.120Z,77.75
2018-09-13T07:17:32.567Z,77.33
2018-09-13T07:20:57.855Z,77.02
2018-09-13T07:24:22.275Z,77.03
2018-09-13T07:27:46.744Z,77.62
2018-09-13T07:31:11.169Z,77.73
2018-09-13T07:34:35.597Z,77.61
2018-09-13T07:38:00.022Z,76.28
2018-09-13T07:41:24.467Z,75.70
2018-09-13T07:44:48.993Z,76.03
2018-09-13T07:48:13.458Z,75.02
2018-09-13T07:51:37.906Z,74.49
2018-09-13T07:55:02.344Z,74.87
2018-09-13T07:58:26.742Z,74.86
2018-09-13T08:01:51.136Z,74.50
2018-09-13T08:05:15.541Z,73.77
2018-09-13T08:08:39.970Z,73.37
2018-09-13T08:12:04.566Z,71.22
2018-09-13T08:15:28.879Z,71.98
2018-09-13T08:18:53.319Z,72.78
2018-09-13T08:22:17.740Z,72.75
2018-09-13T08:25:42.243Z,70.90
2018-09-13T08:29:06.649Z,72.27
2018-09-13T08:32:31.050Z,70.42
2018-09-13T08:35:55.504Z,71.30
2018-09-13T08:39:19.878Z,69.16
2018-09-13T08:42:44.268Z,68.06
2018-09-13T08:46:08.687Z,68.24
2018-09-13T08:49:33.134Z,67.03
2018-09-13T08:52:57.582Z,67.85
2018-09-13T08:56:22.023Z,67.89
2018-09-13T08:59:46.457Z,67.03
2018-09-13T09:03:10.929Z,67.51
2018-09-13T09:06:35.346Z,66.66
2018-09-13T09:09:59.788Z,65.02
2018-09-13T09:13:24.234Z,66.41
2018-09-13T09:16:48.683Z,65.30
2018-09-13T09:20:13.136Z,63.56
2018-09-13T09:23:37.613Z,61.41
2018-09-13T09:27:02.076Z,60.64
2018-09-13T09:30:26.519Z,61.86
2018-09-13T09:33:50.971Z,60.33
2018-09-13T09:37:15.418Z,62.32
2018-09-13T09:40:39.911Z,61.83
2018-09-13T09:44:04.386Z,62.37
2018-09-13T09:47:28.833Z,63.96
2018-09-13T09:50:53.261Z,62.44
2018-09-13T09:54:17.713Z,63.28
2018-09-13T09:57:43.653Z,62.40
2018-09-13T10:01:13.410Z,61.82
2018-09-13T10:04:37.945Z,60.72
2018-09-13T10:08:02.355Z,59.97
2018-09-13T10:11:26.885Z,57.40
2018-09-13T10:14:56.681Z,57.21
2018-09-13T10:18:26.376Z,57.51
2018-09-13T10:21:56.064Z,56.09
2018-09-13T10:25:25.575Z,57.03
2018-09-13T10:28:55.235Z,54.46
2018-09-13T10:32:24.822Z,53.30
2018-09-13T10:35:54.520Z,50.50
2018-09-13T10:39:24.099Z,48.52
2018-09-13T10:42:53.747Z,50.42
2018-09-13T10:46:25.030Z,51.31
2018-09-13T10:49:54.565Z,52.53
2018-09-13T10:53:26.719Z,52.51
2018-09-13T10:56:51.144Z,53.82
2018-09-13T11:00:15.683Z,48.09
2018-09-13T11:03:40.150Z,45.24
2018-09-13T11:07:04.594Z,43.69
2018-09-13T11:10:30.053Z,43.50
2018-09-13T11:13:58.919Z,44.39
2018-09-13T11:17:24.544Z,43.43
2018-09-13T11:20:49.000Z,42.62
2018-09-13T11:24:13.460Z,43.14
2018-09-13T11:27:37.867Z,46.43
2018-09-13T11:31:02.279Z,46.09
2018-09-13T11:34:26.809Z,46.72
2018-09-13T11:37:51.284Z,47.60
2018-09-13T11:41:15.704Z,46.01
2018-09-13T11:44:40.151Z,48.07
2018-09-13T11:48:04.635Z,45.67
2018-09-13T11:51:29.104Z,50.72
2018-09-13T11:54:53.521Z,50.52
2018-09-13T11:58:17.949Z,48.08
2018-09-13T12:01:42.379Z,46.88
2018-09-13T12:05:06.792Z,43.34
2018-09-13T12:08:31.253Z,41.32
2018-09-13T12:11:55.687Z,38.91
2018-09-13T12:15:20.121Z,39.37
2018-09-13T12:18:44.532Z,41.44
2018-09-13T12:22:08.965Z,41.66
2018-09-13T12:25:33.417Z,39.39
2018-09-13T12:29:21.891Z,32.72
2018-09-13T12:32:46.511Z,31.68
2018-09-13T12:36:11.171Z,33.19
2018-09-13T12:39:35.665Z,36.75
2018-09-13T12:43:00.097Z,39.15
2018-09-13T12:46:24.474Z,39.24
2018-09-13T12:49:48.996Z,40.43
2018-09-13T12:53:13.522Z,37.31
2018-09-13T12:56:38.078Z,36.11
2018-09-13T13:00:02.465Z,34.75
2018-09-13T13:03:26.867Z,36.04
2018-09-13T13:06:51.720Z,38.73
2018-09-13T13:10:16.141Z,41.38
2018-09-13T13:13:40.570Z,41.71
2018-09-13T13:17:05.047Z,42.13
2018-09-13T13:20:29.489Z,42.83
2018-09-13T13:23:53.913Z,43.02
2018-09-13T13:27:18.460Z,42.48
2018-09-13T13:30:42.968Z,39.93
2018-09-13T13:34:07.609Z,33.96
2018-09-13T13:37:32.020Z,30.50
2018-09-13T13:40:56.440Z,31.89
2018-09-13T13:44:20.862Z,34.11
2018-09-13T13:47:45.314Z,36.73
2018-09-13T13:51:09.794Z,36.15
2018-09-13T13:54:34.198Z,35.54
2018-09-13T13:57:58.608Z,34.62
2018-09-13T14:01:23.069Z,32.26
2018-09-13T14:04:47.448Z,29.07
2018-09-13T14:08:11.895Z,31.67
2018-09-13T14:11:36.346Z,30.47
2018-09-13T14:15:00.748Z,32.36
2018-09-13T14:18:25.239Z,35.16
2018-09-13T14:21:49.693Z,37.92
2018-09-13T14:25:14.175Z,39.65
2018-09-13T14:28:38.602Z,40.68
2018-09-13T14:32:03.149Z,41.54
2018-09-13T14:35:27.640Z,40.48
2018-09-13T14:38:52.113Z,40.88
2018-09-13T14:42:16.587Z,38.29
2018-09-13T14:45:41.027Z,38.66
2018-09-13T14:49:05.706Z,37.36
2018-09-13T14:52:30.136Z,37.22
2018-09-13T14:55:54.551Z,35.22
2018-09-13T14:59:19.045Z,35.81
2018-09-13T15:02:43.586Z,37.53
2018-09-13T15:06:08.038Z,39.40
2018-09-13T15:09:32.487Z,42.01
2018-09-13T15:12:57.133Z,42.07
2018-09-13T15:16:22.320Z,39.41
2018-09-13T15:19:46.774Z,40.76
2018-09-13T15:23:11.276Z,42.64
2018-09-13T15:26:35.804Z,42.15
2018-09-13T15:30:00.256Z,42.16
2018-09-13T15:33:24.660Z,42.22
2018-09-13T15:36:49.152Z,35.73
2018-09-13T15:40:13.605Z,29.16
2018-09-13T15:43:38.158Z,25.08
2018-09-13T15:47:02.966Z,25.60
2018-09-13T15:50:27.436Z,24.87
2018-09-13T15:53:51.887Z,24.64
2018-09-13T15:57:16.415Z,28.37
2018-09-13T16:00:41.036Z,32.89
2018-09-13T16:04:05.557Z,33.95
2018-09-13T16:07:30.147Z,36.83
2018-09-13T16:10:54.578Z,40.11
2018-09-13T16:14:18.988Z,41.63
2018-09-13T16:17:43.464Z,43.61
2018-09-13T16:21:08.548Z,44.38
2018-09-13T16:24:32.978Z,43.52
2018-09-13T16:27:57.436Z,44.16
2018-09-13T16:31:22.059Z,46.16
2018-09-13T16:34:46.613Z,47.05
2018-09-13T16:38:16.316Z,46.56
2018-09-13T16:41:45.883Z,49.53
2018-09-13T16:45:11.031Z,48.79
2018-09-13T16:48:40.714Z,48.84
2018-09-13T16:52:05.216Z,47.66
2018-09-13T16:55:29.786Z,46.02
2018-09-13T16:58:54.242Z,42.83
2018-09-13T17:02:18.747Z,41.21
2018-09-13T17:05:43.271Z,40.62
2018-09-13T17:09:10.179Z,41.75
2018-09-13T17:12:34.662Z,41.26
2018-09-13T17:15:59.935Z,43.16
2018-09-13T17:19:24.441Z,43.55
2018-09-13T17:22:49.001Z,45.14
2018-09-13T17:26:13.550Z,46.82
2018-09-13T17:29:38.075Z,47.35
2018-09-13T17:33:02.557Z,49.49
2018-09-13T17:36:27.123Z,51.03
2018-09-13T17:39:51.579Z,51.24
2018-09-13T17:43:16.043Z,52.71
2018-09-13T17:46:41.282Z,53.02
2018-09-13T17:50:06.663Z,55.25
2018-09-13T17:53:31.153Z,54.19
2018-09-13T17:56:55.704Z,54.53
2018-09-13T18:00:20.228Z,55.87
2018-09-13T18:03:44.882Z,57.36
2018-09-13T18:07:09.364Z,57.25
2018-09-13T18:10:33.889Z,56.74
2018-09-13T18:13:58.445Z,57.31
2018-09-13T18:17:22.944Z,58.11
2018-09-13T18:20:48.069Z,57.05
2018-09-13T18:24:12.564Z,57.76
2018-09-13T18:27:36.996Z,57.87
2018-09-13T18:31:01.659Z,56.93
2018-09-13T18:34:26.126Z,58.33
2018-09-13T18:37:50.648Z,58.76
2018-09-13T18:41:15.203Z,59.14
2018-09-13T18:44:39.663Z,59.46
2018-09-13T18:48:04.142Z,60.87
2018-09-13T18:51:28.929Z,61.06
2018-09-13T18:54:53.414Z,61.34
2018-09-13T18:58:17.955Z,62.15
2018-09-13T19:01:42.394Z,62.38
2018-09-13T19:05:07.184Z,61.67
2018-09-13T19:08:31.693Z,61.66
2018-09-13T19:11:56.147Z,62.00
2018-09-13T19:15:20.628Z,62.05
2018-09-13T19:18:45.113Z,62.49
2018-09-13T19:22:09.535Z,62.04
2018-09-13T19:25:33.998Z,61.76
2018-09-13T19:28:58.455Z,62.43
2018-09-13T19:32:22.897Z,61.69
2018-09-13T19:35:47.326Z,63.00
2018-09-13T19:39:12.943Z,64.12
2018-09-13T19:42:37.455Z,64.50
2018-09-13T19:46:02.248Z,63.95
2018-09-13T19:49:26.795Z,64.88
2018-09-13T19:52:51.271Z,65.46
2018-09-13T19:56:15.715Z,64.52
2018-09-13T19:59:40.164Z,65.56
2018-09-13T20:03:04.612Z,65.56
2018-09-13T20:06:29.013Z,66.62
2018-09-13T20:09:53.469Z,66.28
2018-09-13T20:13:18.020Z,66.48
2018-09-13T20:16:42.492Z,67.71
2018-09-13T20:20:07.380Z,67.60
2018-09-13T20:23:31.880Z,67.61
2018-09-13T20:26:56.372Z,67.35
2018-09-13T20:30:20.922Z,66.86
2018-09-13T20:33:45.345Z,68.04
2018-09-13T20:37:09.927Z,68.71
2018-09-13T20:40:34.339Z,67.99
2018-09-13T20:43:59.014Z,67.95
2018-09-13T20:47:23.420Z,67.97
2018-09-13T20:50:47.806Z,68.75
2018-09-13T20:54:12.218Z,68.99
2018-09-13T20:57:36.645Z,68.86
2018-09-13T21:01:01.042Z,68.58
2018-09-13T21:04:25.458Z,68.80
2018-09-13T21:07:49.861Z,68.73
2018-09-13T21:11:14.321Z,69.01
2018-09-13T21:14:38.734Z,69.40
2018-09-13T21:18:03.251Z,68.82
2018-09-13T21:21:27.788Z,67.90
2018-09-13T21:24:52.192Z,69.03
2018-09-13T21:28:16.647Z,67.54
2018-09-13T21:31:41.160Z,67.86
2018-09-13T21:35:05.582Z,67.71
2018-09-13T21:38:30.006Z,66.59
2018-09-13T21:41:54.424Z,67.18
2018-09-13T21:45:18.845Z,66.55
2018-09-13T21:48:43.240Z,66.60
2018-09-13T21:52:07.837Z,67.03
2018-09-13T21:55:32.251Z,66.84
2018-09-13T21:58:56.749Z,66.68
2018-09-13T22:02:21.050Z,67.00
2018-09-13T22:05:45.442Z,67.08
2018-09-13T22:09:10.926Z,67.85
2018-09-13T22:12:35.346Z,68.89
2018-09-13T22:16:00.105Z,67.73
2018-09-13T22:19:24.526Z,68.36
2018-09-13T22:22:48.971Z,67.98
2018-09-13T22:29:55.705Z,68.94
2018-09-13T22:33:20.104Z,69.17
2018-09-13T22:36:44.543Z,69.48
2018-09-13T22:40:09.080Z,69.88
2018-09-13T22:43:38.711Z,70.25
2018-09-13T22:47:03.131Z,70.55
2018-09-13T22:50:27.651Z,70.87
2018-09-13T22:53:52.160Z,71.01
2018-09-13T22:57:16.582Z,70.64
2018-09-13T23:00:41.046Z,70.49
2018-09-13T23:04:05.459Z,70.95
2018-09-13T23:07:32.390Z,71.13
2018-09-13T23:10:56.825Z,70.85
2018-09-13T23:14:21.254Z,70.93
2018-09-13T23:17:46.323Z,71.34
2018-09-13T23:21:11.950Z,71.30
2018-09-13T23:24:36.338Z,71.25
2018-09-13T23:28:00.873Z,71.18
2018-09-13T23:31:25.327Z,71.85
2018-09-13T23:34:49.734Z,70.89
2018-09-13T23:38:14.264Z,71.51
2018-09-13T23:41:39.620Z,71.98
2018-09-13T23:45:04.076Z,71.75
2018-09-13T23:48:28.502Z,72.30
2018-09-13T23:51:53.017Z,72.34
2018-09-13T23:55:17.438Z,72.95
2018-09-13T23:58:41.874Z,72.36
